This is the latest recevied weather packets stored in our database for station/object NR6G-5. If no packets are shown the sender has not sent any weather packets the latest 10 day(s).
| Time | Temp. | Humidity | Pressure | Rain* | Wind** | Luminosity | Snow |
|---|---|---|---|---|---|---|---|
| 1778181632 | 26.67° C | 44% | 1015.6 hPa | 0 mm | - | - | - |
| 1778181334 | 26.11° C | 45% | 1015.7 hPa | 0 mm | - | - | - |
| 1778181032 | 26.11° C | 45% | 1015.8 hPa | 0 mm | - | - | - |
| 1778180733 | 26.11° C | 45% | 1015.9 hPa | 0 mm | - | - | - |
| 1778179833 | 26.11° C | 45% | 1016 hPa | 0 mm | - | - | - |
| 1778178033 | 25° C | 49% | 1016.4 hPa | 0 mm | - | - | - |
| 1778177738 | 24.44° C | 49% | 1016.4 hPa | 0 mm | - | - | - |
| 1778177133 | 24.44° C | 50% | 1016.5 hPa | 0 mm | - | - | - |
| 1778176533 | 23.89° C | 51% | 1016.6 hPa | 0 mm | - | - | - |
| 1778175333 | 23.33° C | 54% | 1016.7 hPa | 0 mm | - | - | - |
| 1778174431 | 22.22° C | 55% | 1016.7 hPa | 0 mm | - | - | - |
| 1778173832 | 22.22° C | 55% | 1016.9 hPa | 0 mm | - | - | - |
| 1778171444 | 20.56° C | 61% | 1017.1 hPa | 0 mm | - | - | - |
| 1778171141 | 20.56° C | 60% | 1017.1 hPa | 0 mm | - | - | - |
| 1778170841 | 20.56° C | 60% | 1017.1 hPa | 0 mm | - | - | - |
| 1778170543 | 20.56° C | 62% | 1017.1 hPa | 0 mm | - | - | - |
| 1778170242 | 20° C | 63% | 1017.1 hPa | 0 mm | - | - | - |
| 1778169041 | 20° C | 62% | 1017.2 hPa | 0 mm | - | - | - |
| 1778168441 | 20° C | 63% | 1017.3 hPa | 0 mm | - | - | - |
| 1778168141 | 19.44° C | 62% | 1017.3 hPa | 0 mm | - | - | - |
| 1778167716 | 19.44° C | 63% | 1017.4 hPa | 0 mm | - | - | - |
| 1778166816 | 19.44° C | 63% | 1017.3 hPa | 0 mm | - | - | - |
| 1778166216 | 19.44° C | 64% | 1017.4 hPa | 0 mm | - | - | - |
| 1778165915 | 19.44° C | 63% | 1017.4 hPa | 0 mm | - | - | - |
| 1778165615 | 19.44° C | 63% | 1017.3 hPa | 0 mm | - | - | - |
* Rain latest hour (hover to see other rain measurements)
** Current wind speed in m/s (hover to see current wind gust speed)